Time;durP1;ratioP1;P1;durP2;ratioP2;P2;SDS_P1;SDS_P2;PMS_P1;PMS_P2;Temp;Humidity;BMP_temperature;BMP_pressure;BME280_temperature;BME280_humidity;BME280_pressure;Samples;Min_cycle;Max_cycle;Signal;HPM_P1;HPM_P2
2021/12/14 00:01:52;;;;;;;26.80;9.50;;;;;;;1.06;100.00;97392.25;5063896;28;20237;-84
2021/12/14 00:04:25;;;;;;;27.63;8.67;;;;;;;1.08;100.00;97392.97;5057548;28;20520;-83
2021/12/14 00:06:53;;;;;;;27.53;10.43;;;;;;;1.06;100.00;97399.41;5066340;28;20222;-84
2021/12/14 00:09:27;;;;;;;30.80;8.50;;;;;;;1.01;100.00;97397.19;5058250;28;20249;-83
2021/12/14 00:12:11;;;;;;;27.97;8.97;;;;;;;1.00;100.00;97405.31;5063163;28;20238;-83
2021/12/14 00:17:28;;;;;;;24.77;9.20;;;;;;;1.07;100.00;97414.38;5055826;28;20201;-84
2021/12/14 00:19:58;;;;;;;22.93;8.23;;;;;;;1.07;100.00;97404.59;5056457;28;20236;-84
2021/12/14 00:22:33;;;;;;;37.07;9.20;;;;;;;1.03;100.00;97412.97;5066541;28;20213;-83
2021/12/14 00:25:04;;;;;;;24.00;9.27;;;;;;;0.97;100.00;97414.41;5066523;28;20220;-84
2021/12/14 00:27:32;;;;;;;17.10;8.33;;;;;;;0.96;100.00;97409.22;5062327;28;20228;-84
2021/12/14 00:30:07;;;;;;;23.33;8.63;;;;;;;1.00;100.00;97408.81;5063742;28;20202;-84
2021/12/14 00:32:36;;;;;;;26.70;8.37;;;;;;;0.99;100.00;97403.63;5076451;28;20213;-85
2021/12/14 00:35:11;;;;;;;15.63;8.30;;;;;;;1.04;100.00;97399.53;5061236;28;20232;-83
2021/12/14 00:37:40;;;;;;;17.90;7.77;;;;;;;1.06;100.00;97394.91;5055279;28;20474;-83
2021/12/14 00:40:13;;;;;;;21.00;7.93;;;;;;;1.07;100.00;97398.41;5060571;28;20297;-84
2021/12/14 00:42:41;;;;;;;19.83;7.93;;;;;;;1.13;100.00;97401.31;5059835;28;20294;-83
2021/12/14 00:45:09;;;;;;;22.40;8.73;;;;;;;1.09;100.00;97385.81;5056563;28;20226;-84
2021/12/14 00:47:37;;;;;;;31.27;9.63;;;;;;;1.12;100.00;97396.16;5066921;28;20241;-83
2021/12/14 00:50:05;;;;;;;23.23;8.27;;;;;;;1.10;100.00;97387.50;5058850;28;20210;-83
2021/12/14 00:52:33;;;;;;;26.07;7.70;;;;;;;1.09;100.00;97385.81;5063846;28;20324;-83
2021/12/14 00:55:00;;;;;;;22.23;9.03;;;;;;;1.08;100.00;97376.16;5067208;28;20223;-84
2021/12/14 00:57:29;;;;;;;17.17;8.17;;;;;;;1.09;100.00;97383.16;5056570;28;20196;-83
2021/12/14 00:59:57;;;;;;;22.07;8.90;;;;;;;1.05;100.00;97376.44;5053648;28;20201;-83
2021/12/14 01:02:25;;;;;;;24.10;7.83;;;;;;;1.05;100.00;97379.09;5074103;28;20208;-83
2021/12/14 01:04:56;;;;;;;15.03;7.60;;;;;;;1.07;100.00;97385.13;5059612;28;20200;-85
2021/12/14 01:07:28;;;;;;;22.47;8.33;;;;;;;1.07;100.00;97388.63;5057579;28;20221;-84
2021/12/14 01:10:00;;;;;;;32.67;7.70;;;;;;;1.05;100.00;97384.44;5058325;28;20238;-83
2021/12/14 01:12:39;;;;;;;19.17;7.23;;;;;;;1.02;100.00;97380.22;5061729;28;20213;-83
2021/12/14 01:15:24;;;;;;;21.37;6.97;;;;;;;1.01;100.00;97385.72;5058984;28;20201;-83
2021/12/14 01:18:02;;;;;;;12.80;6.33;;;;;;;0.94;100.00;97382.78;5055782;28;20500;-83
2021/12/14 01:20:37;;;;;;;18.77;6.03;;;;;;;0.92;100.00;97386.59;5066086;28;20212;-83
2021/12/14 01:23:15;;;;;;;16.63;7.27;;;;;;;0.83;100.00;97385.63;5052833;28;20444;-84
2021/12/14 01:25:44;;;;;;;13.77;6.43;;;;;;;0.81;100.00;97381.44;5057445;28;20201;-83
2021/12/14 01:28:17;;;;;;;20.20;6.73;;;;;;;0.72;100.00;97373.34;5052015;28;20227;-83
2021/12/14 01:30:56;;;;;;;15.33;5.70;;;;;;;0.77;100.00;97380.06;5061678;28;20212;-84
2021/12/14 01:33:26;;;;;;;12.17;5.77;;;;;;;0.72;100.00;97375.16;5059238;28;20221;-84
2021/12/14 01:35:55;;;;;;;11.67;6.20;;;;;;;0.77;100.00;97386.19;5063323;28;20197;-84
2021/12/14 01:38:34;;;;;;;14.07;6.27;;;;;;;0.73;100.00;97382.16;5055104;28;20206;-84
2021/12/14 01:41:06;;;;;;;12.27;5.73;;;;;;;0.66;100.00;97368.59;5066312;28;20233;-83
2021/12/14 01:43:42;;;;;;;10.50;5.27;;;;;;;0.72;100.00;97370.69;5058496;28;20201;-83
2021/12/14 01:46:20;;;;;;;8.57;5.13;;;;;;;0.73;100.00;97369.72;5062503;28;20216;-83
2021/12/14 01:48:50;;;;;;;8.10;4.53;;;;;;;0.69;100.00;97360.31;5056603;28;20225;-84
2021/12/14 01:51:28;;;;;;;7.87;4.70;;;;;;;0.53;100.00;97368.06;5059110;28;20225;-83
2021/12/14 01:54:03;;;;;;;9.27;5.20;;;;;;;0.56;100.00;97375.75;5066188;28;20224;-83
2021/12/14 01:56:33;;;;;;;7.70;5.00;;;;;;;0.50;100.00;97362.22;5062146;28;20273;-83
2021/12/14 01:59:08;;;;;;;17.60;5.47;;;;;;;0.49;100.00;97361.38;5066168;28;20200;-84
2021/12/14 02:01:43;;;;;;;8.77;5.07;;;;;;;0.49;100.00;97355.22;5058242;28;20244;-82
2021/12/14 02:04:16;;;;;;;11.53;5.47;;;;;;;0.43;100.00;97345.13;5067964;28;20222;-84
2021/12/14 02:06:44;;;;;;;8.03;4.77;;;;;;;0.43;100.00;97345.97;5063167;28;20217;-85
2021/12/14 02:09:18;;;;;;;10.10;5.13;;;;;;;0.44;100.00;97347.66;5068178;28;20240;-83
2021/12/14 02:11:49;;;;;;;20.10;5.70;;;;;;;0.43;100.00;97345.97;5059775;28;20212;-83
2021/12/14 02:14:20;;;;;;;7.87;4.77;;;;;;;0.49;100.00;97345.44;5069740;28;20197;-84
2021/12/14 02:16:50;;;;;;;8.73;4.83;;;;;;;0.53;100.00;97340.66;5058398;28;20209;-84
2021/12/14 02:19:18;;;;;;;8.33;4.93;;;;;;;0.53;100.00;97340.66;5069953;28;20347;-83
2021/12/14 02:21:51;;;;;;;6.77;4.50;;;;;;;0.61;100.00;97336.28;5060359;28;20196;-82
2021/12/14 02:24:20;;;;;;;8.10;4.83;;;;;;;0.67;100.00;97345.53;5057497;28;20195;-84
2021/12/14 02:26:49;;;;;;;7.70;5.23;;;;;;;0.64;100.00;97343.16;5063534;28;20197;-84
2021/12/14 02:29:23;;;;;;;9.67;5.40;;;;;;;0.68;100.00;97337.38;5063842;28;20209;-83
2021/12/14 02:31:53;;;;;;;8.10;4.57;;;;;;;0.69;100.00;97340.88;5058804;28;20200;-84
2021/12/14 02:34:21;;;;;;;6.77;4.77;;;;;;;0.73;100.00;97351.09;5058144;28;20203;-84
2021/12/14 02:36:52;;;;;;;9.63;5.80;;;;;;;0.79;100.00;97341.69;5055593;28;20204;-83
2021/12/14 02:39:46;;;;;;;11.07;5.33;;;;;;;0.77;100.00;97354.28;5058475;28;20200;-83
2021/12/14 02:42:21;;;;;;;9.60;5.40;;;;;;;0.60;100.00;97347.91;5059721;28;20203;-84
2021/12/14 02:44:50;;;;;;;23.40;5.07;;;;;;;0.52;100.00;97338.97;5067112;28;20253;-83
2021/12/14 02:47:18;;;;;;;6.50;4.17;;;;;;;0.51;100.00;97340.78;5057624;28;20228;-84
2021/12/14 02:49:48;;;;;;;14.17;5.67;;;;;;;0.56;100.00;97340.38;5058877;28;20226;-83
2021/12/14 02:52:26;;;;;;;25.30;5.10;;;;;;;0.61;100.00;97344.25;5059242;28;20331;-83
2021/12/14 02:54:56;;;;;;;9.63;4.60;;;;;;;0.62;100.00;97351.25;5063950;28;20295;-83
2021/12/14 02:57:34;;;;;;;25.23;5.13;;;;;;;0.56;100.00;97343.88;5064641;28;20346;-83
2021/12/14 03:00:05;;;;;;;10.37;4.20;;;;;;;0.55;100.00;97352.81;5053184;28;20255;-84
2021/12/14 03:02:35;;;;;;;12.57;5.27;;;;;;;0.61;100.00;97365.53;5059585;28;20273;-84
2021/12/14 03:05:06;;;;;;;37.87;5.73;;;;;;;0.61;100.00;97370.84;5061442;28;20198;-83
2021/12/14 03:07:40;;;;;;;74.77;7.00;;;;;;;0.57;100.00;97372.13;5059659;28;20213;-83
2021/12/14 03:10:32;;;;;;;82.73;7.57;;;;;;;0.64;100.00;97385.69;5066084;28;20255;-83
2021/12/14 03:13:03;;;;;;;47.40;6.03;;;;;;;0.59;100.00;97393.25;5062486;28;20206;-84
2021/12/14 03:15:34;;;;;;;54.17;6.70;;;;;;;0.63;100.00;97402.59;5068915;28;20209;-83
2021/12/14 03:18:07;;;;;;;8.63;4.90;;;;;;;0.54;100.00;97401.63;5062583;28;20213;-84
2021/12/14 03:20:38;;;;;;;10.60;5.73;;;;;;;0.57;100.00;97401.34;5060637;28;20210;-84
2021/12/14 03:23:09;;;;;;;15.53;5.47;;;;;;;0.66;100.00;97411.13;5070073;28;20290;-84
2021/12/14 03:25:41;;;;;;;36.07;6.53;;;;;;;0.65;100.00;97404.16;5063508;28;20208;-84
2021/12/14 03:28:10;;;;;;;62.90;7.67;;;;;;;0.68;100.00;97411.81;5070090;28;20204;-84
2021/12/14 03:30:43;;;;;;;30.93;6.70;;;;;;;0.71;100.00;97419.50;5062270;28;20193;-82
2021/12/14 03:33:17;;;;;;;36.23;6.63;;;;;;;0.69;100.00;97416.16;5054438;28;20202;-83
2021/12/14 03:35:48;;;;;;;89.40;8.43;;;;;;;0.72;100.00;97430.97;5064149;28;20198;-83
2021/12/14 03:38:20;;;;;;;22.37;6.30;;;;;;;0.67;100.00;97436.75;5065071;28;20224;-84
2021/12/14 03:40:57;;;;;;;35.20;6.83;;;;;;;0.64;100.00;97433.50;5061456;28;20205;-84
2021/12/14 03:43:24;;;;;;;48.80;6.73;;;;;;;0.54;100.00;97433.53;5068965;28;20316;-84
2021/12/14 03:45:53;;;;;;;43.77;5.40;;;;;;;0.57;100.00;97441.22;5065479;28;20278;-84
2021/12/14 03:48:23;;;;;;;69.43;6.37;;;;;;;0.51;100.00;97449.75;5059112;28;20197;-84
2021/12/14 03:50:50;;;;;;;77.57;7.57;;;;;;;0.43;100.00;97441.63;5069560;28;20205;-84
2021/12/14 03:53:21;;;;;;;41.80;6.20;;;;;;;0.48;100.00;97446.53;5061779;28;20229;-83
2021/12/14 03:55:51;;;;;;;55.63;7.50;;;;;;;0.46;100.00;97445.84;5064392;28;20266;-83
2021/12/14 03:58:23;;;;;;;10.53;6.03;;;;;;;0.52;100.00;97461.22;5061912;28;20208;-84
2021/12/14 04:00:54;;;;;;;19.13;7.20;;;;;;;0.60;100.00;97466.66;5055188;28;22904;-84
2021/12/14 04:03:24;;;;;;;17.67;7.17;;;;;;;0.60;100.00;97467.50;5081808;28;20209;-83
2021/12/14 04:06:13;;;;;;;49.77;7.77;;;;;;;0.61;100.00;97469.19;5069122;28;20233;-84
2021/12/14 04:08:44;;;;;;;51.60;7.10;;;;;;;0.54;100.00;97467.22;5064576;28;20228;-84
2021/12/14 04:11:12;;;;;;;52.80;7.10;;;;;;;0.55;100.00;97477.72;5057908;28;20238;-84
2021/12/14 04:13:42;;;;;;;32.10;8.30;;;;;;;0.53;100.00;97474.38;5064368;28;20284;-84
2021/12/14 04:16:17;;;;;;;29.37;7.30;;;;;;;0.54;100.00;97470.72;5062685;28;20201;-83
2021/12/14 04:18:45;;;;;;;39.00;7.20;;;;;;;0.51;100.00;97457.72;5055430;28;20201;-83
2021/12/14 04:21:12;;;;;;;15.33;7.03;;;;;;;0.59;100.00;97462.34;5063033;28;20210;-83
2021/12/14 04:23:47;;;;;;;26.00;6.80;;;;;;;0.57;100.00;97453.69;5064138;28;20209;-84
2021/12/14 04:26:19;;;;;;;16.97;6.57;;;;;;;0.51;100.00;97441.78;5070652;28;20205;-83
2021/12/14 04:28:49;;;;;;;16.70;6.87;;;;;;;0.58;100.00;97450.03;5056129;28;20217;-84
2021/12/14 04:31:18;;;;;;;38.87;6.93;;;;;;;0.54;100.00;97449.47;5065755;28;20205;-84
2021/12/14 04:33:48;;;;;;;19.00;6.93;;;;;;;0.40;100.00;97452.56;5055467;28;20205;-84
2021/12/14 04:36:19;;;;;;;42.03;7.27;;;;;;;0.32;100.00;97433.84;5058405;28;20202;-84
2021/12/14 04:38:54;;;;;;;40.97;7.10;;;;;;;0.26;100.00;97434.38;5063440;28;20419;-84
2021/12/14 04:52:29;;;;;;;26.50;6.13;;;;;;;0.35;100.00;97434.38;5061188;28;20201;-84
2021/12/14 04:55:01;;;;;;;13.30;5.77;;;;;;;0.33;100.00;97435.50;5060050;28;20210;-84
2021/12/14 04:57:32;;;;;;;22.47;6.27;;;;;;;0.25;100.00;97422.09;5057996;28;20228;-83
2021/12/14 05:00:14;;;;;;;13.50;6.27;;;;;;;0.37;100.00;97437.72;5058777;28;20210;-83
2021/12/14 05:02:43;;;;;;;13.37;6.37;;;;;;;0.36;100.00;97429.91;5055302;28;20204;-84
2021/12/14 05:05:19;;;;;;;14.80;6.67;;;;;;;0.39;100.00;97437.59;5056961;28;20205;-84
2021/12/14 05:09:20;;;;;;;19.83;6.57;;;;;;;0.38;100.00;97425.28;5075824;28;20227;-83
2021/12/14 05:10:55;;;;;;;18.27;5.47;;;;;;;0.41;100.00;97422.34;5056451;28;20286;-84
2021/12/14 05:13:24;;;;;;;10.83;5.97;;;;;;;0.44;100.00;97422.06;5056338;28;20217;-85
2021/12/14 05:15:52;;;;;;;18.53;6.30;;;;;;;0.41;100.00;97419.69;5062984;28;20196;-84
2021/12/14 05:18:21;;;;;;;15.03;5.33;;;;;;;0.40;100.00;97422.50;5059120;28;20288;-84
2021/12/14 05:20:51;;;;;;;13.37;5.67;;;;;;;0.42;100.00;97412.56;5056380;28;20544;-83
2021/12/14 05:23:22;;;;;;;31.00;5.83;;;;;;;0.39;100.00;97411.03;5070710;28;20205;-84
2021/12/14 05:25:52;;;;;;;23.33;5.50;;;;;;;0.37;100.00;97412.97;5062783;28;20248;-83
2021/12/14 05:28:21;;;;;;;15.40;5.43;;;;;;;0.29;100.00;97400.41;5061266;28;20261;-84
2021/12/14 05:30:58;;;;;;;23.17;5.33;;;;;;;0.23;100.00;97400.97;5065775;28;20223;-82
2021/12/14 05:33:37;;;;;;;24.50;5.60;;;;;;;0.19;100.00;97391.59;5058793;28;20208;-84
2021/12/14 05:36:25;;;;;;;22.43;4.50;;;;;;;0.19;100.00;97390.75;5080835;28;20331;-83
2021/12/14 05:39:00;;;;;;;51.30;5.37;;;;;;;0.09;100.00;97384.59;5066424;28;20204;-84
2021/12/14 05:44:53;;;;;;;10.77;4.80;;;;;;;-0.07;100.00;97393.97;5062111;28;20241;-82
2021/12/14 05:47:21;;;;;;;8.30;4.50;;;;;;;-0.02;100.00;97414.81;5057964;28;20291;-83
2021/12/14 05:50:03;;;;;;;13.90;4.67;;;;;;;0.04;100.00;97408.09;5063799;28;20216;-83
2021/12/14 05:52:31;;;;;;;6.93;3.77;;;;;;;0.04;100.00;97406.28;5066579;28;20273;-83
2021/12/14 05:55:10;;;;;;;7.70;4.30;;;;;;;0.10;100.00;97416.34;5069169;28;20209;-84
2021/12/14 05:57:39;;;;;;;7.67;4.53;;;;;;;0.11;100.00;97410.06;5067083;28;20193;-83
2021/12/14 06:00:12;;;;;;;9.53;5.17;;;;;;;0.21;100.00;97426.00;5071183;28;20190;-83
2021/12/14 06:02:53;;;;;;;7.77;4.77;;;;;;;0.25;100.00;97430.06;5058197;28;20299;-83
2021/12/14 06:05:23;;;;;;;19.10;5.13;;;;;;;0.34;100.00;97437.19;5058150;28;20247;-83
2021/12/14 06:07:52;;;;;;;18.83;5.00;;;;;;;0.32;100.00;97426.69;5056091;28;20202;-84
2021/12/14 06:10:23;;;;;;;22.97;4.53;;;;;;;0.36;100.00;97435.22;5058529;28;20251;-82
2021/12/14 06:12:52;;;;;;;26.03;6.03;;;;;;;0.33;100.00;97416.91;5064545;28;20264;-85
2021/12/14 06:15:26;;;;;;;24.87;4.40;;;;;;;0.31;100.00;97417.06;5055513;28;20197;-84
2021/12/14 06:17:56;;;;;;;23.13;3.90;;;;;;;0.20;100.00;97419.00;5051129;28;20232;-83
2021/12/14 06:20:44;;;;;;;24.00;4.90;;;;;;;0.15;100.00;97421.25;5079974;28;20276;-83
2021/12/14 06:23:13;;;;;;;16.80;5.37;;;;;;;0.14;100.00;97414.25;5057627;28;20198;-84
2021/12/14 06:26:05;;;;;;;13.27;4.73;;;;;;;0.18;100.00;97431.56;5066141;28;20358;-83
2021/12/14 06:28:34;;;;;;;9.43;4.90;;;;;;;0.20;100.00;97421.66;5055583;28;20209;-83
2021/12/14 06:31:05;;;;;;;7.67;4.17;;;;;;;0.25;100.00;97419.44;5058639;28;20224;-84
2021/12/14 06:33:34;;;;;;;14.17;5.40;;;;;;;0.28;100.00;97417.31;5054757;28;20210;-84
2021/12/14 06:36:10;;;;;;;10.83;4.53;;;;;;;0.22;100.00;97417.03;5054714;28;20202;-82
2021/12/14 06:38:38;;;;;;;25.67;4.53;;;;;;;0.19;100.00;97414.66;5063717;28;20197;-85
2021/12/14 06:41:12;;;;;;;16.33;4.33;;;;;;;0.16;100.00;97409.66;5057604;28;20211;-84
2021/12/14 06:43:48;;;;;;;17.93;5.07;;;;;;;0.12;100.00;97398.44;5063373;28;20201;-84
2021/12/14 06:46:21;;;;;;;20.27;4.87;;;;;;;-0.03;100.00;97394.53;5058260;28;20204;-84
2021/12/14 06:48:53;;;;;;;30.33;5.67;;;;;;;-0.09;100.00;97385.31;5059033;28;20237;-84
2021/12/14 06:51:24;;;;;;;25.97;5.27;;;;;;;-0.14;100.00;97395.50;5062566;28;20216;-83
2021/12/14 06:54:23;;;;;;;22.13;5.53;;;;;;;-0.15;100.00;97391.16;5065245;28;20212;-83
2021/12/14 06:57:06;;;;;;;19.53;5.00;;;;;;;-0.22;100.00;97389.22;5052874;28;20286;-83
2021/12/14 06:59:48;;;;;;;36.60;5.50;;;;;;;-0.34;100.00;97385.81;5062392;28;20232;-83
2021/12/14 07:02:25;;;;;;;27.07;5.50;;;;;;;-0.42;100.00;97389.16;5062504;28;20196;-84
2021/12/14 07:05:18;;;;;;;21.27;4.50;;;;;;;-0.44;100.00;97382.34;5090261;28;20219;-83
2021/12/14 07:07:49;;;;;;;12.90;5.30;;;;;;;-0.42;100.00;97383.03;5063520;28;20215;-83
2021/12/14 07:10:18;;;;;;;13.53;4.87;;;;;;;-0.43;100.00;97381.38;5057245;28;20232;-83
2021/12/14 07:12:46;;;;;;;12.23;5.90;;;;;;;-0.45;100.00;97370.88;5063096;28;20217;-84
2021/12/14 07:15:20;;;;;;;13.93;6.10;;;;;;;-0.33;100.00;97379.53;5063177;28;20228;-83
2021/12/14 07:17:59;;;;;;;17.67;4.90;;;;;;;-0.26;100.00;97372.75;5063659;28;20209;-83
2021/12/14 07:20:30;;;;;;;9.47;5.03;;;;;;;-0.20;100.00;97369.53;5060829;28;20209;-83
2021/12/14 07:23:01;;;;;;;9.77;5.00;;;;;;;-0.20;100.00;97366.03;5063022;28;20209;-84
2021/12/14 07:25:31;;;;;;;10.53;5.07;;;;;;;-0.25;100.00;97347.84;5067012;28;20208;-86
2021/12/14 07:27:59;;;;;;;9.60;5.40;;;;;;;-0.19;100.00;97357.94;5024877;28;20231;-81
2021/12/14 07:30:34;;;;;;;10.33;5.37;;;;;;;-0.15;100.00;97372.59;5040464;28;20219;-82
2021/12/14 07:33:09;;;;;;;14.33;5.57;;;;;;;-0.11;100.00;97374.00;5035575;28;20201;-82
2021/12/14 07:35:41;;;;;;;24.40;5.43;;;;;;;-0.11;100.00;97370.50;5040619;28;20232;-82
2021/12/14 07:38:38;;;;;;;9.83;5.83;;;;;;;-0.09;100.00;97369.41;5037811;28;20298;-82
2021/12/14 07:41:11;;;;;;;8.40;4.90;;;;;;;-0.07;100.00;97378.03;5036941;28;20279;-82
2021/12/14 07:43:43;;;;;;;13.13;5.23;;;;;;;-0.05;100.00;97384.06;5037903;28;20216;-82
2021/12/14 07:46:21;;;;;;;35.73;5.93;;;;;;;-0.06;100.00;97395.66;5039961;28;20689;-82
2021/12/14 07:48:51;;;;;;;11.03;5.13;;;;;;;-0.09;100.00;97401.25;5046184;28;20213;-81
2021/12/14 07:51:20;;;;;;;27.03;5.40;;;;;;;-0.07;100.00;97391.31;5040046;28;20218;-82
2021/12/14 07:53:50;;;;;;;17.73;5.53;;;;;;;-0.01;100.00;97406.72;5038745;28;20203;-82
2021/12/14 07:56:34;;;;;;;39.90;5.77;;;;;;;0.06;100.00;97414.97;5039300;28;20206;-82
2021/12/14 07:59:08;;;;;;;58.70;6.47;;;;;;;0.02;100.00;97420.66;5040047;28;20220;-83
2021/12/14 08:01:37;;;;;;;23.73;5.53;;;;;;;0.06;100.00;97428.22;5035401;28;20210;-81
2021/12/14 08:04:10;;;;;;;29.40;6.50;;;;;;;0.07;100.00;97435.22;5035512;28;20213;-83
2021/12/14 08:06:47;;;;;;;21.50;6.17;;;;;;;0.16;100.00;97441.53;5040991;28;20231;-81
2021/12/14 08:09:19;;;;;;;16.90;6.83;;;;;;;0.19;100.00;97438.56;5037140;28;20194;-82
2021/12/14 08:11:50;;;;;;;18.43;6.30;;;;;;;0.21;100.00;97442.78;5037537;28;20224;-82
2021/12/14 08:14:21;;;;;;;19.63;5.70;;;;;;;0.21;100.00;97447.25;5030537;28;20297;-81
2021/12/14 08:16:55;;;;;;;37.33;5.80;;;;;;;0.32;100.00;97466.56;5040752;28;20201;-84
2021/12/14 08:19:31;;;;;;;23.23;5.13;;;;;;;0.31;100.00;97464.03;5038181;28;20201;-82
2021/12/14 08:22:00;;;;;;;11.93;5.40;;;;;;;0.41;100.00;97474.66;5035780;28;20240;-82
2021/12/14 08:24:27;;;;;;;21.80;5.97;;;;;;;0.40;100.00;97473.81;5038420;28;20242;-82
2021/12/14 08:26:59;;;;;;;24.57;6.47;;;;;;;0.39;100.00;97474.78;5031327;28;20256;-82
2021/12/14 08:29:29;;;;;;;23.53;6.20;;;;;;;0.37;100.00;97479.41;5036917;28;20214;-82
2021/12/14 08:31:59;;;;;;;44.70;6.73;;;;;;;0.40;100.00;97484.44;5035592;28;20227;-82
2021/12/14 08:34:28;;;;;;;18.17;6.53;;;;;;;0.48;100.00;97476.63;5031982;28;20211;-83
2021/12/14 08:37:01;;;;;;;25.83;7.73;;;;;;;0.42;100.00;97471.88;5055891;28;20202;-82
2021/12/14 08:39:31;;;;;;;57.30;7.50;;;;;;;0.40;100.00;97471.16;5038560;28;20205;-82
2021/12/14 08:42:10;;;;;;;18.03;6.83;;;;;;;0.48;100.00;97479.28;5029722;28;20302;-81
2021/12/14 08:44:51;;;;;;;10.97;5.77;;;;;;;0.48;100.00;97476.63;5036536;28;20259;-80
2021/12/14 08:47:28;;;;;;;21.27;7.07;;;;;;;0.47;100.00;97474.09;5044937;28;20301;-83
2021/12/14 08:49:58;;;;;;;18.10;6.03;;;;;;;0.46;100.00;97472.41;5035707;28;20221;-82
2021/12/14 08:52:26;;;;;;;16.30;7.67;;;;;;;0.51;100.00;97470.19;5043728;28;20440;-82
2021/12/14 08:54:55;;;;;;;18.20;6.63;;;;;;;0.47;100.00;97464.31;5031034;28;20278;-82
2021/12/14 08:57:25;;;;;;;14.90;6.13;;;;;;;0.48;100.00;97471.31;5032549;28;20225;-81
2021/12/14 08:59:56;;;;;;;9.80;6.07;;;;;;;0.51;100.00;97476.31;5038996;28;20198;-82
2021/12/14 09:02:26;;;;;;;12.27;6.63;;;;;;;0.39;100.00;97450.88;5031867;28;20210;-81
2021/12/14 09:04:56;;;;;;;13.80;6.13;;;;;;;0.43;100.00;97454.91;5039913;28;20279;-81
2021/12/14 09:07:28;;;;;;;18.37;6.23;;;;;;;0.27;100.00;97446.69;5035103;28;20240;-81
2021/12/14 09:09:56;;;;;;;18.97;6.20;;;;;;;0.29;100.00;97455.34;5036621;28;20269;-81
2021/12/14 09:12:26;;;;;;;13.27;6.67;;;;;;;0.35;100.00;97468.06;5039350;28;20194;-81
2021/12/14 09:14:57;;;;;;;15.50;5.90;;;;;;;0.40;100.00;97468.50;5056799;28;20198;-81
2021/12/14 09:17:26;;;;;;;11.67;6.00;;;;;;;0.44;100.00;97477.03;5040471;28;20249;-82
2021/12/14 09:19:57;;;;;;;14.33;6.47;;;;;;;0.45;100.00;97474.22;5034636;28;20200;-81
2021/12/14 09:22:30;;;;;;;9.33;5.43;;;;;;;0.53;100.00;97489.47;5043777;28;20216;-81
2021/12/14 09:24:58;;;;;;;10.30;5.77;;;;;;;0.61;100.00;97493.09;5035946;28;20234;-82
2021/12/14 09:27:29;;;;;;;13.17;6.47;;;;;;;0.79;100.00;97519.81;5035065;28;20270;-81
2021/12/14 09:29:57;;;;;;;22.30;7.00;;;;;;;0.90;100.00;97518.84;5034729;28;20216;-82
2021/12/14 09:32:28;;;;;;;40.33;7.47;;;;;;;0.93;100.00;97511.44;5045642;28;20227;-82
2021/12/14 09:34:57;;;;;;;9.07;4.70;;;;;;;0.97;100.00;97504.00;5038560;28;20207;-82
2021/12/14 09:37:25;;;;;;;8.93;4.83;;;;;;;0.93;100.00;97498.13;5036784;28;20212;-83
2021/12/14 09:40:02;;;;;;;8.53;4.50;;;;;;;0.89;100.00;97496.72;5039179;28;20449;-82
2021/12/14 09:42:32;;;;;;;7.07;4.30;;;;;;;0.89;100.00;97488.75;5043527;28;20214;-81
2021/12/14 09:45:08;;;;;;;9.47;4.80;;;;;;;0.97;100.00;97498.66;5031828;28;20272;-82
2021/12/14 09:47:37;;;;;;;8.33;5.13;;;;;;;1.04;100.00;97489.13;5043654;28;20245;-82
2021/12/14 09:50:08;;;;;;;7.97;4.70;;;;;;;1.19;100.00;97498.38;5039079;28;20213;-81
2021/12/14 09:52:39;;;;;;;11.60;5.40;;;;;;;1.18;100.00;97488.69;5033544;28;20567;-81
2021/12/14 09:55:12;;;;;;;10.30;5.20;;;;;;;1.13;100.00;97467.00;5038168;28;20222;-81
2021/12/14 09:57:42;;;;;;;13.80;6.20;;;;;;;1.20;100.00;97460.09;5040078;28;20234;-82
2021/12/14 10:00:15;;;;;;;10.43;6.07;;;;;;;1.33;100.00;97460.63;5041551;28;20221;-80
2021/12/14 10:02:48;;;;;;;9.67;6.30;;;;;;;1.43;100.00;97450.81;5034906;28;20261;-81
2021/12/14 10:05:20;;;;;;;9.77;6.23;;;;;;;1.46;100.00;97445.16;5037174;28;20211;-82
2021/12/14 10:07:48;;;;;;;9.37;5.60;;;;;;;1.45;100.00;97419.53;5032198;28;20198;-82
2021/12/14 10:10:18;;;;;;;8.47;5.20;;;;;;;1.52;100.00;97407.34;5031727;28;20217;-81
2021/12/14 10:12:53;;;;;;;8.27;5.33;;;;;;;1.52;100.00;97415.31;5043814;28;20211;-81
2021/12/14 10:15:26;;;;;;;9.53;6.27;;;;;;;1.66;100.00;97408.66;5042535;28;20298;-82
2021/12/14 10:17:57;;;;;;;9.27;5.87;;;;;;;1.69;100.00;97397.72;5032164;28;20217;-81
2021/12/14 10:20:30;;;;;;;9.63;5.60;;;;;;;1.55;100.00;97394.69;5037047;28;20205;-81
2021/12/14 10:22:58;;;;;;;7.50;4.73;;;;;;;1.60;100.00;97374.63;5033428;28;20211;-81
2021/12/14 10:25:27;;;;;;;8.90;5.27;;;;;;;1.62;100.00;97374.47;5048957;28;20202;-81
2021/12/14 10:27:56;;;;;;;7.10;4.57;;;;;;;1.62;100.00;97363.81;5050271;28;20221;-82
2021/12/14 10:30:28;;;;;;;6.40;4.67;;;;;;;1.69;100.00;97359.59;5039573;28;20204;-81
2021/12/14 10:32:57;;;;;;;9.20;4.53;;;;;;;1.68;100.00;97349.94;5045822;28;20198;-80
2021/12/14 10:35:34;;;;;;;7.63;4.83;;;;;;;1.65;100.00;97350.22;5035655;28;20195;-81
2021/12/14 10:38:13;;;;;;;9.27;5.10;;;;;;;1.84;100.00;97345.59;5041531;28;20213;-82
2021/12/14 10:43:31;;;;;;;8.33;5.60;;;;;;;2.72;100.00;97343.81;5042768;28;20221;-81
2021/12/14 10:46:02;;;;;;;5.40;4.33;;;;;;;2.92;100.00;97357.75;5039984;28;20240;-81
2021/12/14 10:48:33;;;;;;;7.57;4.93;;;;;;;3.11;100.00;97367.38;5053320;28;20241;-81
2021/12/14 10:51:05;;;;;;;8.10;5.40;;;;;;;3.42;100.00;97364.00;5042353;28;20226;-82
2021/12/14 10:53:32;;;;;;;9.33;5.20;;;;;;;3.56;100.00;97372.41;5036926;28;20213;-81
2021/12/14 10:56:05;;;;;;;8.33;4.63;;;;;;;3.65;100.00;97369.63;5041629;28;20234;-82
2021/12/14 10:58:32;;;;;;;7.53;4.03;;;;;;;3.68;100.00;97374.63;5043883;28;20210;-82
2021/12/14 11:01:03;;;;;;;5.67;3.90;;;;;;;3.64;100.00;97365.28;5032609;28;20195;-81
2021/12/14 11:03:43;;;;;;;6.07;4.17;;;;;;;3.66;100.00;97360.56;5033421;28;20218;-82
2021/12/14 11:06:13;;;;;;;7.60;4.87;;;;;;;3.54;100.00;97364.56;5038068;28;20308;-82
2021/12/14 11:08:48;;;;;;;5.90;4.10;;;;;;;3.39;100.00;97360.84;5036994;28;20277;-82
2021/12/14 11:11:20;;;;;;;8.20;4.93;;;;;;;3.32;100.00;97359.78;5041873;28;20344;-82
2021/12/14 11:13:52;;;;;;;7.07;4.23;;;;;;;3.31;100.00;97369.66;5038697;28;20241;-82
2021/12/14 11:16:33;;;;;;;7.90;5.20;;;;;;;3.33;100.00;97364.13;5046423;28;20293;-82
2021/12/14 11:19:05;;;;;;;9.93;5.20;;;;;;;3.19;100.00;97378.09;5038638;28;20223;-81
2021/12/14 11:21:33;;;;;;;8.87;5.37;;;;;;;3.13;100.00;97366.22;5037570;28;20206;-82
2021/12/14 11:24:00;;;;;;;8.40;4.80;;;;;;;3.09;100.00;97364.00;5049092;28;20293;-82
2021/12/14 11:26:32;;;;;;;6.97;4.53;;;;;;;3.03;100.00;97361.00;5035652;28;20285;-82
2021/12/14 11:29:04;;;;;;;6.60;4.60;;;;;;;3.06;100.00;97359.00;5047154;28;20241;-83
2021/12/14 11:31:37;;;;;;;6.10;4.17;;;;;;;3.05;100.00;97360.84;5044509;28;20225;-83
2021/12/14 11:34:09;;;;;;;7.13;4.83;;;;;;;3.12;100.00;97353.03;5037810;28;20202;-82
2021/12/14 11:36:38;;;;;;;10.47;6.10;;;;;;;3.43;100.00;97351.50;5041874;28;20256;-81
2021/12/14 11:39:11;;;;;;;8.43;5.00;;;;;;;3.53;100.00;97346.88;5045320;28;20205;-80
2021/12/14 11:41:42;;;;;;;6.30;4.27;;;;;;;3.45;100.00;97338.81;5033465;28;20276;-81
2021/12/14 11:44:17;;;;;;;7.43;4.67;;;;;;;3.30;100.00;97329.78;5040271;28;20216;-82
2021/12/14 11:46:58;;;;;;;6.50;4.53;;;;;;;3.22;100.00;97330.56;5037816;28;20266;-81
2021/12/14 11:49:41;;;;;;;10.43;4.60;;;;;;;3.17;100.00;97340.03;5051802;28;20210;-82
2021/12/14 11:52:10;;;;;;;9.03;4.73;;;;;;;3.12;100.00;97345.88;5042905;28;20225;-82
2021/12/14 11:54:43;;;;;;;7.27;4.73;;;;;;;3.04;100.00;97345.84;5034056;28;20199;-82
2021/12/14 11:57:11;;;;;;;8.03;5.17;;;;;;;3.04;100.00;97352.00;5034723;28;20194;-84
2021/12/14 11:59:38;;;;;;;7.50;5.17;;;;;;;3.04;100.00;97349.34;5031084;28;20262;-82
2021/12/14 12:02:07;;;;;;;8.77;4.80;;;;;;;3.03;100.00;97347.66;5033628;28;20221;-81
2021/12/14 12:04:42;;;;;;;7.97;4.77;;;;;;;3.12;100.00;97353.03;5031522;28;20595;-83
2021/12/14 12:09:59;;;;;;;11.57;6.17;;;;;;;3.13;100.00;97339.53;5033819;28;20280;-82
2021/12/14 12:12:30;;;;;;;8.00;5.27;;;;;;;3.07;100.00;97325.97;5034429;28;20218;-82
2021/12/14 12:15:00;;;;;;;9.53;5.57;;;;;;;3.04;100.00;97340.50;5043105;28;20226;-82